North Hudson, Wisconsin
Current Conditions -  °F | °C
As of 3:31 AM on Monday 24 Nov 2014 (Local Time) from K21D Reporting Station
Light Snow Light Snow  
Wind Chill: -5°   Ceiling: 1100
Heat Index:   Visibility: 10mi
Dew Point:   Wind: 12mph
Humidity: 100%   Direction: 310°NW
Pressure: 29.28"   Gusts: NA
Location:  44.9743°N, 92.6899°W
Report Text: K21D 240931Z AUTO 31010KT 10SM -SN OVC011 00/00 A2928 RMK AO2
Loading
Personal Weather Stations






























Interactive Weather Map New forecast layout! Learn more

10-Day Weather Forecast

Advertisements
Track Severe Weather on mobile